sensor_id;sensor_type;location;lat;lon;timestamp;pressure;altitude;pressure_sealevel;temperature;humidity
35489;BME280;21602;55.670;37.578;2023-04-28T00:00:44;98652.63;;;14.94;66.13
35489;BME280;21602;55.670;37.578;2023-04-28T00:03:12;98650.47;;;14.91;65.99
35489;BME280;21602;55.670;37.578;2023-04-28T00:05:39;98643.03;;;14.82;66.26
35489;BME280;21602;55.670;37.578;2023-04-28T00:08:05;98647.34;;;14.78;66.31
35489;BME280;21602;55.670;37.578;2023-04-28T00:10:31;98637.13;;;14.75;66.51
35489;BME280;21602;55.670;37.578;2023-04-28T00:12:57;98637.13;;;14.75;66.47
35489;BME280;21602;55.670;37.578;2023-04-28T00:15:23;98640.13;;;14.74;66.42
35489;BME280;21602;55.670;37.578;2023-04-28T00:17:49;98631.81;;;14.70;66.80
35489;BME280;21602;55.670;37.578;2023-04-28T00:20:15;98635.28;;;14.71;66.86
35489;BME280;21602;55.670;37.578;2023-04-28T00:22:41;98633.69;;;14.70;67.20
35489;BME280;21602;55.670;37.578;2023-04-28T00:25:07;98633.13;;;14.73;67.15
35489;BME280;21602;55.670;37.578;2023-04-28T00:27:34;98632.34;;;14.72;67.17
35489;BME280;21602;55.670;37.578;2023-04-28T00:30:01;98626.44;;;14.70;67.20
35489;BME280;21602;55.670;37.578;2023-04-28T00:32:32;98618.94;;;14.67;67.19
35489;BME280;21602;55.670;37.578;2023-04-28T00:34:58;98619.50;;;14.64;67.41
35489;BME280;21602;55.670;37.578;2023-04-28T00:37:24;98621.13;;;14.60;67.62
35489;BME280;21602;55.670;37.578;2023-04-28T00:39:55;98620.59;;;14.58;67.77
35489;BME280;21602;55.670;37.578;2023-04-28T00:42:21;98616.56;;;14.55;67.91
35489;BME280;21602;55.670;37.578;2023-04-28T00:44:47;98614.97;;;14.54;68.37
35489;BME280;21602;55.670;37.578;2023-04-28T00:47:16;98619.53;;;14.54;68.23
35489;BME280;21602;55.670;37.578;2023-04-28T00:49:42;98613.63;;;14.52;68.18
35489;BME280;21602;55.670;37.578;2023-04-28T00:52:09;98609.88;;;14.48;68.20
35489;BME280;21602;55.670;37.578;2023-04-28T00:54:35;98613.41;;;14.43;68.58
35489;BME280;21602;55.670;37.578;2023-04-28T00:57:02;98617.44;;;14.41;68.72
35489;BME280;21602;55.670;37.578;2023-04-28T00:59:30;98617.72;;;14.39;68.90
35489;BME280;21602;55.670;37.578;2023-04-28T01:01:56;98616.91;;;14.39;69.04
35489;BME280;21602;55.670;37.578;2023-04-28T01:04:22;98617.47;;;14.35;69.00
35489;BME280;21602;55.670;37.578;2023-04-28T01:06:49;98616.13;;;14.33;69.15
35489;BME280;21602;55.670;37.578;2023-04-28T01:09:17;98618.00;;;14.32;69.56
35489;BME280;21602;55.670;37.578;2023-04-28T01:11:45;98622.28;;;14.33;69.33
35489;BME280;21602;55.670;37.578;2023-04-28T01:14:16;98614.78;;;14.30;69.47
35489;BME280;21602;55.670;37.578;2023-04-28T01:16:43;98614.22;;;14.33;69.74
35489;BME280;21602;55.670;37.578;2023-04-28T01:19:19;98613.69;;;14.37;69.80
35489;BME280;21602;55.670;37.578;2023-04-28T01:21:47;98611.03;;;14.31;69.48
35489;BME280;21602;55.670;37.578;2023-04-28T01:24:19;98629.56;;;14.28;69.92
35489;BME280;21602;55.670;37.578;2023-04-28T01:26:45;98631.19;;;14.24;69.67
35489;BME280;21602;55.670;37.578;2023-04-28T01:29:11;98626.91;;;14.18;69.79
35489;BME280;21602;55.670;37.578;2023-04-28T01:31:37;98623.97;;;14.14;69.85
35489;BME280;21602;55.670;37.578;2023-04-28T01:34:03;98628.81;;;14.12;69.89
35489;BME280;21602;55.670;37.578;2023-04-28T01:36:29;98625.06;;;14.08;70.19
35489;BME280;21602;55.670;37.578;2023-04-28T01:38:55;98628.31;;;14.05;70.17
35489;BME280;21602;55.670;37.578;2023-04-28T01:41:21;98632.34;;;14.02;70.45
35489;BME280;21602;55.670;37.578;2023-04-28T01:43:47;98635.31;;;14.01;70.40
35489;BME280;21602;55.670;37.578;2023-04-28T01:46:13;98624.28;;;14.02;70.50
35489;BME280;21602;55.670;37.578;2023-04-28T01:48:39;98619.22;;;14.01;70.45
35489;BME280;21602;55.670;37.578;2023-04-28T01:51:05;98629.66;;;14.02;70.64
35489;BME280;21602;55.670;37.578;2023-04-28T01:53:30;98630.72;;;14.06;70.59
35489;BME280;21602;55.670;37.578;2023-04-28T01:55:57;98624.78;;;14.09;70.62
35489;BME280;21602;55.670;37.578;2023-04-28T01:58:24;98616.50;;;14.11;70.67
35489;BME280;21602;55.670;37.578;2023-04-28T02:00:50;98612.72;;;14.12;70.78
35489;BME280;21602;55.670;37.578;2023-04-28T02:03:18;98606.84;;;14.10;70.70
35489;BME280;21602;55.670;37.578;2023-04-28T02:05:44;98606.56;;;14.06;70.62
35489;BME280;21602;55.670;37.578;2023-04-28T02:08:10;98608.19;;;14.02;70.68
35489;BME280;21602;55.670;37.578;2023-04-28T02:10:36;98614.66;;;14.01;70.74
35489;BME280;21602;55.670;37.578;2023-04-28T02:13:02;98617.56;;;14.05;71.08
35489;BME280;21602;55.670;37.578;2023-04-28T02:15:29;98620.25;;;14.10;71.04
35489;BME280;21602;55.670;37.578;2023-04-28T02:17:55;98611.13;;;14.11;71.16
35489;BME280;21602;55.670;37.578;2023-04-28T02:20:21;98612.97;;;14.16;71.22
35489;BME280;21602;55.670;37.578;2023-04-28T02:22:48;98609.47;;;14.20;71.11
35489;BME280;21602;55.670;37.578;2023-04-28T02:25:14;98616.97;;;14.23;71.25
35489;BME280;21602;55.670;37.578;2023-04-28T02:27:39;98615.91;;;14.24;71.17
35489;BME280;21602;55.670;37.578;2023-04-28T02:30:06;98619.09;;;14.26;71.30
35489;BME280;21602;55.670;37.578;2023-04-28T02:32:32;98621.78;;;14.26;71.22
35489;BME280;21602;55.670;37.578;2023-04-28T02:34:58;98618.84;;;14.23;71.33
35489;BME280;21602;55.670;37.578;2023-04-28T02:37:25;98628.78;;;14.22;71.24
35489;BME280;21602;55.670;37.578;2023-04-28T02:39:51;98634.97;;;14.18;71.76
35489;BME280;21602;55.670;37.578;2023-04-28T02:42:19;98633.09;;;14.18;71.74
35489;BME280;21602;55.670;37.578;2023-04-28T02:44:45;98622.34;;;14.18;71.73
35489;BME280;21602;55.670;37.578;2023-04-28T02:47:13;98626.91;;;14.18;71.76
35489;BME280;21602;55.670;37.578;2023-04-28T02:49:39;98641.94;;;14.19;71.96
35489;BME280;21602;55.670;37.578;2023-04-28T02:52:05;98640.34;;;14.18;71.88
35489;BME280;21602;55.670;37.578;2023-04-28T02:54:30;98641.13;;;14.18;72.15
35489;BME280;21602;55.670;37.578;2023-04-28T02:56:59;98638.47;;;14.18;71.94
35489;BME280;21602;55.670;37.578;2023-04-28T02:59:25;98637.38;;;14.19;72.16
35489;BME280;21602;55.670;37.578;2023-04-28T03:01:51;98629.59;;;14.18;71.92
35489;BME280;21602;55.670;37.578;2023-04-28T03:04:17;98627.97;;;14.22;72.27
35489;BME280;21602;55.670;37.578;2023-04-28T03:06:43;98627.16;;;14.26;72.17
35489;BME280;21602;55.670;37.578;2023-04-28T03:09:10;98626.88;;;14.28;72.13
35489;BME280;21602;55.670;37.578;2023-04-28T03:11:37;98629.84;;;14.26;72.11
35489;BME280;21602;55.670;37.578;2023-04-28T03:14:03;98626.66;;;14.24;71.96
35489;BME280;21602;55.670;37.578;2023-04-28T03:16:29;98643.56;;;14.25;72.12
35489;BME280;21602;55.670;37.578;2023-04-28T03:18:55;98651.31;;;14.26;72.20
35489;BME280;21602;55.670;37.578;2023-04-28T03:21:21;98644.06;;;14.27;72.17
35489;BME280;21602;55.670;37.578;2023-04-28T03:23:46;98645.66;;;14.28;72.20
35489;BME280;21602;55.670;37.578;2023-04-28T03:26:12;98647.81;;;14.31;72.39
35489;BME280;21602;55.670;37.578;2023-04-28T03:28:38;98649.69;;;14.35;72.01
35489;BME280;21602;55.670;37.578;2023-04-28T03:31:04;98655.34;;;14.34;72.09
35489;BME280;21602;55.670;37.578;2023-04-28T03:33:30;98658.56;;;14.26;72.24
35489;BME280;21602;55.670;37.578;2023-04-28T03:35:57;98648.91;;;14.25;72.05
35489;BME280;21602;55.670;37.578;2023-04-28T03:38:23;98657.22;;;14.23;72.14
35489;BME280;21602;55.670;37.578;2023-04-28T03:40:49;98666.38;;;14.22;72.50
35489;BME280;21602;55.670;37.578;2023-04-28T03:43:34;98655.06;;;14.30;72.85
35489;BME280;21602;55.670;37.578;2023-04-28T03:46:21;98659.63;;;14.35;72.54
35489;BME280;21602;55.670;37.578;2023-04-28T03:48:48;98663.91;;;14.36;72.42
35489;BME280;21602;55.670;37.578;2023-04-28T03:51:13;98666.56;;;14.41;72.02
35489;BME280;21602;55.670;37.578;2023-04-28T03:53:40;98662.53;;;14.44;72.15
35489;BME280;21602;55.670;37.578;2023-04-28T03:56:06;98657.97;;;14.44;72.09
35489;BME280;21602;55.670;37.578;2023-04-28T03:58:32;98663.84;;;14.46;72.05
35489;BME280;21602;55.670;37.578;2023-04-28T04:01:00;98666.84;;;14.50;71.85
35489;BME280;21602;55.670;37.578;2023-04-28T04:03:27;98664.69;;;14.42;72.02
35489;BME280;21602;55.670;37.578;2023-04-28T04:05:55;98661.47;;;14.40;72.03
35489;BME280;21602;55.670;37.578;2023-04-28T04:08:21;98682.16;;;14.39;72.45
35489;BME280;21602;55.670;37.578;2023-04-28T04:10:47;98679.72;;;14.43;72.42
35489;BME280;21602;55.670;37.578;2023-04-28T04:13:13;98676.78;;;14.44;72.21
35489;BME280;21602;55.670;37.578;2023-04-28T04:15:41;98676.50;;;14.41;72.37
35489;BME280;21602;55.670;37.578;2023-04-28T04:18:07;98674.66;;;14.36;72.45
35489;BME280;21602;55.670;37.578;2023-04-28T04:20:59;98665.00;;;14.35;72.88
35489;BME280;21602;55.670;37.578;2023-04-28T04:23:26;98659.88;;;14.39;73.04
35489;BME280;21602;55.670;37.578;2023-04-28T04:25:52;98667.34;;;14.47;72.85
35489;BME280;21602;55.670;37.578;2023-04-28T04:28:18;98674.06;;;14.54;72.85
35489;BME280;21602;55.670;37.578;2023-04-28T04:30:44;98681.00;;;14.60;72.73
35489;BME280;21602;55.670;37.578;2023-04-28T04:33:10;98688.78;;;14.67;72.73
35489;BME280;21602;55.670;37.578;2023-04-28T04:35:36;98685.00;;;14.68;73.13
35489;BME280;21602;55.670;37.578;2023-04-28T04:38:02;98685.81;;;14.69;72.99
35489;BME280;21602;55.670;37.578;2023-04-28T04:40:29;98690.38;;;14.73;73.13
35489;BME280;21602;55.670;37.578;2023-04-28T04:42:55;98684.41;;;14.81;73.83
35489;BME280;21602;55.670;37.578;2023-04-28T04:45:26;98690.78;;;14.96;74.11
35489;BME280;21602;55.670;37.578;2023-04-28T04:47:52;98689.88;;;15.10;73.87
35489;BME280;21602;55.670;37.578;2023-04-28T04:50:18;98692.16;;;15.27;73.74
35489;BME280;21602;55.670;37.578;2023-04-28T04:52:45;98698.47;;;15.47;73.13
35489;BME280;21602;55.670;37.578;2023-04-28T04:55:11;98703.34;;;15.45;72.67
35489;BME280;21602;55.670;37.578;2023-04-28T04:57:40;98709.53;;;15.45;73.28
35489;BME280;21602;55.670;37.578;2023-04-28T05:00:29;98705.66;;;15.56;72.98
35489;BME280;21602;55.670;37.578;2023-04-28T05:02:55;98711.41;;;15.45;72.16
35489;BME280;21602;55.670;37.578;2023-04-28T05:05:21;98701.81;;;15.33;72.48
35489;BME280;21602;55.670;37.578;2023-04-28T05:08:16;98703.75;;;15.23;73.07
35489;BME280;21602;55.670;37.578;2023-04-28T05:10:41;98702.69;;;15.24;73.41
35489;BME280;21602;55.670;37.578;2023-04-28T05:13:09;98704.03;;;15.26;73.08
35489;BME280;21602;55.670;37.578;2023-04-28T05:15:36;98703.50;;;15.24;73.50
35489;BME280;21602;55.670;37.578;2023-04-28T05:18:29;98709.94;;;15.23;73.22
35489;BME280;21602;55.670;37.578;2023-04-28T05:20:55;98715.88;;;15.25;73.98
35489;BME280;21602;55.670;37.578;2023-04-28T05:23:21;98716.41;;;15.22;73.81
35489;BME280;21602;55.670;37.578;2023-04-28T05:25:48;98716.97;;;15.19;73.83
35489;BME280;21602;55.670;37.578;2023-04-28T05:28:14;98716.41;;;15.22;74.16
35489;BME280;21602;55.670;37.578;2023-04-28T05:30:42;98716.84;;;15.40;74.70
35489;BME280;21602;55.670;37.578;2023-04-28T05:33:11;98717.81;;;15.54;73.89
35489;BME280;21602;55.670;37.578;2023-04-28T05:35:37;98713.47;;;15.58;74.04
35489;BME280;21602;55.670;37.578;2023-04-28T05:38:04;98716.66;;;15.60;73.74
35489;BME280;21602;55.670;37.578;2023-04-28T05:40:31;98716.38;;;15.61;73.79
35489;BME280;21602;55.670;37.578;2023-04-28T05:42:57;98713.97;;;15.60;73.75
35489;BME280;21602;55.670;37.578;2023-04-28T05:45:23;98715.56;;;15.66;74.05
35489;BME280;21602;55.670;37.578;2023-04-28T05:47:50;98714.13;;;15.79;73.58
35489;BME280;21602;55.670;37.578;2023-04-28T05:50:16;98715.41;;;15.86;73.37
35489;BME280;21602;55.670;37.578;2023-04-28T05:52:42;98714.78;;;15.95;73.08
35489;BME280;21602;55.670;37.578;2023-04-28T05:55:08;98714.72;;;16.00;73.15
35489;BME280;21602;55.670;37.578;2023-04-28T05:57:35;98719.53;;;16.03;72.79
35489;BME280;21602;55.670;37.578;2023-04-28T06:00:02;98715.75;;;16.04;72.60
35489;BME280;21602;55.670;37.578;2023-04-28T06:02:38;98720.94;;;16.00;72.65
35489;BME280;21602;55.670;37.578;2023-04-28T06:05:06;98714.72;;;16.00;73.08
35489;BME280;21602;55.670;37.578;2023-04-28T06:07:32;98714.91;;;16.08;72.75
35489;BME280;21602;55.670;37.578;2023-04-28T06:09:58;98711.84;;;16.20;72.63
35489;BME280;21602;55.670;37.578;2023-04-28T06:12:24;98706.28;;;16.35;71.97
35489;BME280;21602;55.670;37.578;2023-04-28T06:14:51;98708.41;;;16.38;72.12
35489;BME280;21602;55.670;37.578;2023-04-28T06:17:20;98716.81;;;16.56;71.82
35489;BME280;21602;55.670;37.578;2023-04-28T06:19:47;98710.34;;;16.57;71.37
35489;BME280;21602;55.670;37.578;2023-04-28T06:22:15;98705.91;;;16.66;71.61
35489;BME280;21602;55.670;37.578;2023-04-28T06:24:41;98700.63;;;16.80;70.92
35489;BME280;21602;55.670;37.578;2023-04-28T06:27:10;98701.31;;;16.91;70.72
35489;BME280;21602;55.670;37.578;2023-04-28T06:29:36;98714.66;;;17.01;70.36
35489;BME280;21602;55.670;37.578;2023-04-28T06:32:02;98707.81;;;17.08;70.17
35489;BME280;21602;55.670;37.578;2023-04-28T06:34:28;98703.97;;;17.14;70.16
35489;BME280;21602;55.670;37.578;2023-04-28T06:36:57;98708.19;;;17.21;69.73
35489;BME280;21602;55.670;37.578;2023-04-28T06:39:25;98711.44;;;17.18;70.20
35489;BME280;21602;55.670;37.578;2023-04-28T06:41:52;98701.44;;;17.18;70.10
35489;BME280;21602;55.670;37.578;2023-04-28T06:44:21;98705.25;;;17.17;70.31
35489;BME280;21602;55.670;37.578;2023-04-28T06:46:47;98707.88;;;17.22;70.54
35489;BME280;21602;55.670;37.578;2023-04-28T06:49:13;98707.59;;;17.24;70.23
35489;BME280;21602;55.670;37.578;2023-04-28T06:51:39;98706.41;;;17.30;70.54
35489;BME280;21602;55.670;37.578;2023-04-28T06:54:05;98713.47;;;17.45;70.42
35489;BME280;21602;55.670;37.578;2023-04-28T06:56:34;98713.84;;;17.57;69.94
35489;BME280;21602;55.670;37.578;2023-04-28T06:59:00;98712.50;;;17.54;69.98
35489;BME280;21602;55.670;37.578;2023-04-28T07:01:28;98706.97;;;17.46;70.26
35489;BME280;21602;55.670;37.578;2023-04-28T07:03:54;98712.75;;;17.39;70.30
35489;BME280;21602;55.670;37.578;2023-04-28T07:06:20;98713.56;;;17.39;70.55
35489;BME280;21602;55.670;37.578;2023-04-28T07:08:46;98715.47;;;17.39;70.35
35489;BME280;21602;55.670;37.578;2023-04-28T07:11:12;98720.78;;;17.44;70.56
35489;BME280;21602;55.670;37.578;2023-04-28T07:13:38;98713.63;;;17.53;70.53
35489;BME280;21602;55.670;37.578;2023-04-28T07:16:04;98724.25;;;17.63;70.34
35489;BME280;21602;55.670;37.578;2023-04-28T07:18:30;98723.66;;;17.66;70.38
35489;BME280;21602;55.670;37.578;2023-04-28T07:20:55;98727.16;;;17.67;70.35
35489;BME280;21602;55.670;37.578;2023-04-28T07:23:24;98728.84;;;17.63;70.15
35489;BME280;21602;55.670;37.578;2023-04-28T07:25:53;98724.19;;;17.50;70.22
35489;BME280;21602;55.670;37.578;2023-04-28T07:28:19;98723.81;;;17.37;70.89
35489;BME280;21602;55.670;37.578;2023-04-28T07:30:44;98728.94;;;17.39;71.47
35489;BME280;21602;55.670;37.578;2023-04-28T07:33:11;98728.94;;;17.39;71.74
35489;BME280;21602;55.670;37.578;2023-04-28T07:35:37;98735.56;;;17.47;72.62
35489;BME280;21602;55.670;37.578;2023-04-28T07:38:02;98735.13;;;17.39;72.67
35489;BME280;21602;55.670;37.578;2023-04-28T07:40:28;98739.13;;;17.42;72.85
35489;BME280;21602;55.670;37.578;2023-04-28T07:42:54;98731.47;;;17.49;73.42
35489;BME280;21602;55.670;37.578;2023-04-28T07:45:20;98731.94;;;17.70;73.31
35489;BME280;21602;55.670;37.578;2023-04-28T07:47:46;98734.00;;;17.78;72.81
35489;BME280;21602;55.670;37.578;2023-04-28T07:50:12;98730.50;;;17.78;72.75
35489;BME280;21602;55.670;37.578;2023-04-28T07:52:38;98721.38;;;18.06;72.68
35489;BME280;21602;55.670;37.578;2023-04-28T07:55:04;98729.63;;;18.29;71.76
35489;BME280;21602;55.670;37.578;2023-04-28T07:57:31;98731.53;;;18.42;71.39
35489;BME280;21602;55.670;37.578;2023-04-28T07:59:57;98726.31;;;18.46;71.16
35489;BME280;21602;55.670;37.578;2023-04-28T08:02:23;98724.41;;;18.46;71.02
35489;BME280;21602;55.670;37.578;2023-04-28T08:04:50;98732.44;;;18.37;71.08
35489;BME280;21602;55.670;37.578;2023-04-28T08:07:16;98734.22;;;18.28;71.24
35489;BME280;21602;55.670;37.578;2023-04-28T08:09:42;98728.38;;;18.07;71.30
35489;BME280;21602;55.670;37.578;2023-04-28T08:12:12;98726.34;;;17.85;71.74
35489;BME280;21602;55.670;37.578;2023-04-28T08:14:39;98732.03;;;17.65;72.37
35489;BME280;21602;55.670;37.578;2023-04-28T08:17:05;98724.75;;;17.47;72.98
35489;BME280;21602;55.670;37.578;2023-04-28T08:19:31;98732.38;;;17.26;73.57
35489;BME280;21602;55.670;37.578;2023-04-28T08:21:57;98731.50;;;17.11;74.30
35489;BME280;21602;55.670;37.578;2023-04-28T08:24:24;98728.22;;;16.96;75.31
35489;BME280;21602;55.670;37.578;2023-04-28T08:26:50;98735.84;;;16.88;76.65
35489;BME280;21602;55.670;37.578;2023-04-28T08:29:16;98731.25;;;16.89;77.07
35489;BME280;21602;55.670;37.578;2023-04-28T08:31:42;98738.03;;;16.86;77.72
35489;BME280;21602;55.670;37.578;2023-04-28T08:34:09;98734.16;;;16.74;77.54
35489;BME280;21602;55.670;37.578;2023-04-28T08:36:36;98739.41;;;16.60;78.47
35489;BME280;21602;55.670;37.578;2023-04-28T08:39:01;98736.03;;;16.49;79.24
35489;BME280;21602;55.670;37.578;2023-04-28T08:41:32;98740.22;;;16.36;79.51
35489;BME280;21602;55.670;37.578;2023-04-28T08:44:01;98742.22;;;16.26;80.14
35489;BME280;21602;55.670;37.578;2023-04-28T08:46:31;98733.66;;;16.19;80.79
35489;BME280;21602;55.670;37.578;2023-04-28T08:49:00;98743.63;;;16.18;81.21
35489;BME280;21602;55.670;37.578;2023-04-28T08:51:33;98745.28;;;16.14;81.58
35489;BME280;21602;55.670;37.578;2023-04-28T08:54:02;98749.34;;;16.11;81.88
35489;BME280;21602;55.670;37.578;2023-04-28T08:56:32;98743.16;;;16.11;82.02
35489;BME280;21602;55.670;37.578;2023-04-28T08:59:01;98751.25;;;16.11;82.49
35489;BME280;21602;55.670;37.578;2023-04-28T09:01:28;98748.56;;;16.11;82.65
35489;BME280;21602;55.670;37.578;2023-04-28T09:03:55;98749.91;;;16.08;82.74
35489;BME280;21602;55.670;37.578;2023-04-28T09:06:21;98741.28;;;16.11;82.92
35489;BME280;21602;55.670;37.578;2023-04-28T09:08:48;98742.44;;;16.29;83.12
35489;BME280;21602;55.670;37.578;2023-04-28T09:11:14;98737.94;;;16.49;83.05
35489;BME280;21602;55.670;37.578;2023-04-28T09:13:41;98740.56;;;16.78;83.23
35489;BME280;21602;55.670;37.578;2023-04-28T09:16:07;98737.63;;;17.17;82.08
35489;BME280;21602;55.670;37.578;2023-04-28T09:18:33;98736.56;;;17.51;81.30
35489;BME280;21602;55.670;37.578;2023-04-28T09:21:04;98744.81;;;17.78;80.54
35489;BME280;21602;55.670;37.578;2023-04-28T09:23:31;98739.16;;;17.94;79.72
35489;BME280;21602;55.670;37.578;2023-04-28T09:26:03;98744.38;;;18.04;78.96
35489;BME280;21602;55.670;37.578;2023-04-28T09:28:30;98740.09;;;18.16;78.73
35489;BME280;21602;55.670;37.578;2023-04-28T09:30:57;98732.19;;;18.20;77.85
35489;BME280;21602;55.670;37.578;2023-04-28T09:33:24;98737.91;;;18.32;77.26
35489;BME280;21602;55.670;37.578;2023-04-28T09:35:51;98730.13;;;18.45;76.81
35489;BME280;21602;55.670;37.578;2023-04-28T09:38:18;98725.31;;;18.55;76.22
35489;BME280;21602;55.670;37.578;2023-04-28T09:43:31;98726.31;;;18.46;74.98
35489;BME280;21602;55.670;37.578;2023-04-28T09:46:04;98734.41;;;18.32;75.14
35489;BME280;21602;55.670;37.578;2023-04-28T09:48:32;98739.00;;;18.17;75.48
35489;BME280;21602;55.670;37.578;2023-04-28T09:51:03;98732.97;;;18.07;75.35
35489;BME280;21602;55.670;37.578;2023-04-28T09:53:31;98734.25;;;17.96;75.80
35489;BME280;21602;55.670;37.578;2023-04-28T09:55:59;98735.34;;;17.81;75.92
35489;BME280;21602;55.670;37.578;2023-04-28T09:58:26;98737.34;;;17.70;76.52
35489;BME280;21602;55.670;37.578;2023-04-28T10:00:54;98737.44;;;17.65;76.61
35489;BME280;21602;55.670;37.578;2023-04-28T10:03:28;98734.91;;;17.55;76.61
35489;BME280;21602;55.670;37.578;2023-04-28T10:05:55;98731.78;;;17.48;76.66
35489;BME280;21602;55.670;37.578;2023-04-28T10:08:25;98740.69;;;17.48;77.08
35489;BME280;21602;55.670;37.578;2023-04-28T10:10:52;98750.50;;;17.58;76.79
35489;BME280;21602;55.670;37.578;2023-04-28T10:13:21;98746.50;;;17.74;76.69
35489;BME280;21602;55.670;37.578;2023-04-28T10:15:50;98748.16;;;18.03;76.16
35489;BME280;21602;55.670;37.578;2023-04-28T10:18:21;98745.03;;;18.28;75.44
35489;BME280;21602;55.670;37.578;2023-04-28T10:20:49;98752.66;;;18.54;75.12
35489;BME280;21602;55.670;37.578;2023-04-28T10:25:48;98747.63;;;18.88;73.63
35489;BME280;21602;55.670;37.578;2023-04-28T10:28:17;98739.13;;;18.95;73.44
35489;BME280;21602;55.670;37.578;2023-04-28T10:31:13;98752.81;;;18.99;72.80
35489;BME280;21602;55.670;37.578;2023-04-28T10:33:40;98747.41;;;18.99;72.87
35489;BME280;21602;55.670;37.578;2023-04-28T10:36:07;98748.06;;;18.82;72.90
35489;BME280;21602;55.670;37.578;2023-04-28T10:38:34;98749.94;;;18.67;72.21
35489;BME280;21602;55.670;37.578;2023-04-28T10:41:01;98746.91;;;18.41;72.49
35489;BME280;21602;55.670;37.578;2023-04-28T10:43:33;98752.91;;;18.11;73.31
35489;BME280;21602;55.670;37.578;2023-04-28T10:46:06;98745.16;;;17.90;74.13
35489;BME280;21602;55.670;37.578;2023-04-28T10:58:45;98762.38;;;16.81;74.97
35489;BME280;21602;55.670;37.578;2023-04-28T11:06:21;98756.72;;;16.30;77.06
35489;BME280;21602;55.670;37.578;2023-04-28T11:08:51;98760.03;;;16.22;77.35
35489;BME280;21602;55.670;37.578;2023-04-28T11:11:19;98761.41;;;16.19;77.82
35489;BME280;21602;55.670;37.578;2023-04-28T11:13:46;98768.56;;;16.00;79.06
35489;BME280;21602;55.670;37.578;2023-04-28T11:16:18;98779.41;;;15.90;79.97
35489;BME280;21602;55.670;37.578;2023-04-28T11:18:54;98767.94;;;15.79;81.14
35489;BME280;21602;55.670;37.578;2023-04-28T11:21:21;98776.84;;;15.74;81.52
35489;BME280;21602;55.670;37.578;2023-04-28T11:23:48;98771.72;;;15.78;81.96
35489;BME280;21602;55.670;37.578;2023-04-28T11:26:14;98770.31;;;15.85;82.15
35489;BME280;21602;55.670;37.578;2023-04-28T11:28:46;98769.66;;;15.99;82.01
35489;BME280;21602;55.670;37.578;2023-04-28T11:31:13;98776.00;;;16.13;81.89
35489;BME280;21602;55.670;37.578;2023-04-28T11:33:59;98773.56;;;16.41;81.75
35489;BME280;21602;55.670;37.578;2023-04-28T11:36:32;98778.16;;;16.64;80.67
35489;BME280;21602;55.670;37.578;2023-04-28T11:38:59;98775.19;;;16.89;80.08
35489;BME280;21602;55.670;37.578;2023-04-28T11:41:25;98777.03;;;17.13;79.13
35489;BME280;21602;55.670;37.578;2023-04-28T11:43:51;98772.69;;;17.36;78.28
35489;BME280;21602;55.670;37.578;2023-04-28T11:46:22;98770.13;;;17.45;76.74
35489;BME280;21602;55.670;37.578;2023-04-28T11:48:59;98771.72;;;17.46;76.15
35489;BME280;21602;55.670;37.578;2023-04-28T11:51:36;98771.31;;;17.38;75.98
35489;BME280;21602;55.670;37.578;2023-04-28T11:54:04;98769.19;;;17.35;75.97
35489;BME280;21602;55.670;37.578;2023-04-28T11:56:38;98761.16;;;17.11;75.93
35489;BME280;21602;55.670;37.578;2023-04-28T11:59:12;98763.69;;;17.03;75.69
35489;BME280;21602;55.670;37.578;2023-04-28T12:07:09;98752.16;;;16.78;76.89
35489;BME280;21602;55.670;37.578;2023-04-28T12:09:39;98755.94;;;16.77;76.76
35489;BME280;21602;55.670;37.578;2023-04-28T12:12:07;98751.94;;;16.70;76.74
35489;BME280;21602;55.670;37.578;2023-04-28T12:19:51;98749.31;;;16.41;77.88
35489;BME280;21602;55.670;37.578;2023-04-28T12:22:17;98748.63;;;16.30;78.01
35489;BME280;21602;55.670;37.578;2023-04-28T12:24:43;98751.31;;;16.06;78.32
35489;BME280;21602;55.670;37.578;2023-04-28T12:27:20;98754.97;;;15.86;79.36
35489;BME280;21602;55.670;37.578;2023-04-28T12:29:54;98769.91;;;15.68;79.66
35489;BME280;21602;55.670;37.578;2023-04-28T12:35:41;98765.19;;;15.50;81.28
35489;BME280;21602;55.670;37.578;2023-04-28T12:38:10;98756.41;;;15.34;82.65
35489;BME280;21602;55.670;37.578;2023-04-28T12:40:39;98762.94;;;15.18;83.04
35489;BME280;21602;55.670;37.578;2023-04-28T12:43:05;98768.66;;;15.06;84.02
35489;BME280;21602;55.670;37.578;2023-04-28T12:45:31;98768.19;;;14.89;85.19
35489;BME280;21602;55.670;37.578;2023-04-28T12:47:57;98767.75;;;14.66;85.29
35489;BME280;21602;55.670;37.578;2023-04-28T12:50:23;98775.03;;;14.55;85.44
35489;BME280;21602;55.670;37.578;2023-04-28T12:52:50;98769.38;;;14.47;85.91
35489;BME280;21602;55.670;37.578;2023-04-28T12:55:15;98759.47;;;14.37;87.17
35489;BME280;21602;55.670;37.578;2023-04-28T12:57:57;98760.84;;;14.34;87.71
35489;BME280;21602;55.670;37.578;2023-04-28T13:00:23;98763.53;;;14.34;87.55
35489;BME280;21602;55.670;37.578;2023-04-28T13:02:50;98762.41;;;14.46;87.26
35489;BME280;21602;55.670;37.578;2023-04-28T13:05:17;98770.22;;;14.52;87.07
35489;BME280;21602;55.670;37.578;2023-04-28T13:07:44;98763.78;;;14.53;87.01
35489;BME280;21602;55.670;37.578;2023-04-28T13:10:20;98766.69;;;14.62;86.58
35489;BME280;21602;55.670;37.578;2023-04-28T13:12:48;98767.22;;;14.64;86.39
35489;BME280;21602;55.670;37.578;2023-04-28T13:15:14;98767.78;;;14.56;86.36
35489;BME280;21602;55.670;37.578;2023-04-28T13:17:40;98779.91;;;14.53;86.34
35489;BME280;21602;55.670;37.578;2023-04-28T13:20:06;98776.41;;;14.38;86.68
35489;BME280;21602;55.670;37.578;2023-04-28T13:22:34;98785.03;;;14.29;87.01
35489;BME280;21602;55.670;37.578;2023-04-28T13:25:00;98781.78;;;14.27;86.89
35489;BME280;21602;55.670;37.578;2023-04-28T13:27:26;98785.56;;;14.16;87.50